sensor_id;sensor_type;location;lat;lon;timestamp;P1;durP1;ratioP1;P2;durP2;ratioP2
13941;SDS011;7043;51.630;7.254;2023-03-14T00:02:20;5.37;;;1.87;;
13941;SDS011;7043;51.630;7.254;2023-03-14T00:04:46;4.47;;;1.80;;
13941;SDS011;7043;51.630;7.254;2023-03-14T00:07:12;4.33;;;2.00;;
13941;SDS011;7043;51.630;7.254;2023-03-14T00:09:39;4.10;;;1.60;;
13941;SDS011;7043;51.630;7.254;2023-03-14T00:12:05;5.27;;;1.83;;
13941;SDS011;7043;51.630;7.254;2023-03-14T00:14:32;4.20;;;2.00;;
13941;SDS011;7043;51.630;7.254;2023-03-14T00:16:58;6.53;;;2.10;;
13941;SDS011;7043;51.630;7.254;2023-03-14T00:19:24;4.73;;;1.80;;
13941;SDS011;7043;51.630;7.254;2023-03-14T00:21:50;5.23;;;1.70;;
13941;SDS011;7043;51.630;7.254;2023-03-14T00:24:16;4.00;;;1.60;;
13941;SDS011;7043;51.630;7.254;2023-03-14T00:26:42;6.63;;;1.90;;
13941;SDS011;7043;51.630;7.254;2023-03-14T00:29:08;4.73;;;2.37;;
13941;SDS011;7043;51.630;7.254;2023-03-14T00:31:34;6.93;;;2.03;;
13941;SDS011;7043;51.630;7.254;2023-03-14T00:34:01;3.90;;;1.93;;
13941;SDS011;7043;51.630;7.254;2023-03-14T00:36:27;3.43;;;1.80;;
13941;SDS011;7043;51.630;7.254;2023-03-14T00:38:53;6.20;;;2.03;;
13941;SDS011;7043;51.630;7.254;2023-03-14T00:41:22;6.23;;;1.80;;
13941;SDS011;7043;51.630;7.254;2023-03-14T00:43:48;5.33;;;1.70;;
13941;SDS011;7043;51.630;7.254;2023-03-14T00:46:15;6.77;;;1.80;;
13941;SDS011;7043;51.630;7.254;2023-03-14T00:48:41;5.77;;;1.93;;
13941;SDS011;7043;51.630;7.254;2023-03-14T00:51:08;5.53;;;1.80;;
13941;SDS011;7043;51.630;7.254;2023-03-14T00:53:35;5.37;;;2.13;;
13941;SDS011;7043;51.630;7.254;2023-03-14T00:56:02;4.33;;;1.80;;
13941;SDS011;7043;51.630;7.254;2023-03-14T00:58:29;5.23;;;1.97;;
13941;SDS011;7043;51.630;7.254;2023-03-14T01:00:55;5.20;;;1.83;;
13941;SDS011;7043;51.630;7.254;2023-03-14T01:03:21;4.90;;;1.87;;
13941;SDS011;7043;51.630;7.254;2023-03-14T01:05:47;4.30;;;1.60;;
13941;SDS011;7043;51.630;7.254;2023-03-14T01:08:13;7.00;;;1.67;;
13941;SDS011;7043;51.630;7.254;2023-03-14T01:10:39;5.97;;;1.87;;
13941;SDS011;7043;51.630;7.254;2023-03-14T01:13:05;2.27;;;1.10;;
13941;SDS011;7043;51.630;7.254;2023-03-14T01:15:32;3.80;;;1.10;;
13941;SDS011;7043;51.630;7.254;2023-03-14T01:17:58;5.30;;;1.27;;
13941;SDS011;7043;51.630;7.254;2023-03-14T01:20:24;3.93;;;1.57;;
13941;SDS011;7043;51.630;7.254;2023-03-14T01:22:50;3.83;;;1.30;;
13941;SDS011;7043;51.630;7.254;2023-03-14T01:25:16;5.77;;;1.40;;
13941;SDS011;7043;51.630;7.254;2023-03-14T01:27:43;3.00;;;1.40;;
13941;SDS011;7043;51.630;7.254;2023-03-14T01:30:10;6.63;;;1.53;;
13941;SDS011;7043;51.630;7.254;2023-03-14T01:32:36;4.27;;;1.37;;
13941;SDS011;7043;51.630;7.254;2023-03-14T01:35:03;4.93;;;1.40;;
13941;SDS011;7043;51.630;7.254;2023-03-14T01:37:29;4.63;;;1.20;;
13941;SDS011;7043;51.630;7.254;2023-03-14T01:39:55;2.63;;;1.10;;
13941;SDS011;7043;51.630;7.254;2023-03-14T01:42:21;4.97;;;1.27;;
13941;SDS011;7043;51.630;7.254;2023-03-14T01:44:48;4.73;;;1.03;;
13941;SDS011;7043;51.630;7.254;2023-03-14T01:47:14;3.27;;;1.47;;
13941;SDS011;7043;51.630;7.254;2023-03-14T01:49:40;2.97;;;1.10;;
13941;SDS011;7043;51.630;7.254;2023-03-14T01:52:07;6.53;;;1.47;;
13941;SDS011;7043;51.630;7.254;2023-03-14T01:54:39;2.67;;;1.10;;
13941;SDS011;7043;51.630;7.254;2023-03-14T01:59:55;2.57;;;0.90;;
13941;SDS011;7043;51.630;7.254;2023-03-14T02:02:22;4.80;;;1.53;;
13941;SDS011;7043;51.630;7.254;2023-03-14T02:04:50;3.87;;;1.03;;
13941;SDS011;7043;51.630;7.254;2023-03-14T02:09:42;3.17;;;1.23;;
13941;SDS011;7043;51.630;7.254;2023-03-14T02:12:08;3.90;;;1.17;;
13941;SDS011;7043;51.630;7.254;2023-03-14T02:14:35;3.73;;;1.30;;
13941;SDS011;7043;51.630;7.254;2023-03-14T02:17:03;5.83;;;1.33;;
13941;SDS011;7043;51.630;7.254;2023-03-14T02:19:42;2.63;;;1.00;;
13941;SDS011;7043;51.630;7.254;2023-03-14T02:22:12;4.47;;;1.20;;
13941;SDS011;7043;51.630;7.254;2023-03-14T02:27:15;4.03;;;1.37;;
13941;SDS011;7043;51.630;7.254;2023-03-14T02:29:46;3.63;;;1.50;;
13941;SDS011;7043;51.630;7.254;2023-03-14T02:32:14;5.37;;;1.30;;
13941;SDS011;7043;51.630;7.254;2023-03-14T02:34:40;5.37;;;1.50;;
13941;SDS011;7043;51.630;7.254;2023-03-14T02:37:08;4.47;;;1.17;;
13941;SDS011;7043;51.630;7.254;2023-03-14T02:39:36;4.27;;;1.40;;
13941;SDS011;7043;51.630;7.254;2023-03-14T02:42:02;5.10;;;1.27;;
13941;SDS011;7043;51.630;7.254;2023-03-14T02:44:28;5.70;;;1.37;;
13941;SDS011;7043;51.630;7.254;2023-03-14T02:46:54;4.63;;;1.20;;
13941;SDS011;7043;51.630;7.254;2023-03-14T02:49:20;5.23;;;1.43;;
13941;SDS011;7043;51.630;7.254;2023-03-14T02:51:47;3.80;;;1.27;;
13941;SDS011;7043;51.630;7.254;2023-03-14T02:54:14;4.27;;;1.40;;
13941;SDS011;7043;51.630;7.254;2023-03-14T02:56:41;7.20;;;1.43;;
13941;SDS011;7043;51.630;7.254;2023-03-14T02:59:07;6.37;;;1.97;;
13941;SDS011;7043;51.630;7.254;2023-03-14T03:01:33;6.77;;;1.17;;
13941;SDS011;7043;51.630;7.254;2023-03-14T03:03:59;6.97;;;1.40;;
13941;SDS011;7043;51.630;7.254;2023-03-14T03:06:25;5.17;;;1.40;;
13941;SDS011;7043;51.630;7.254;2023-03-14T03:08:51;3.00;;;1.20;;
13941;SDS011;7043;51.630;7.254;2023-03-14T03:11:18;7.10;;;1.87;;
13941;SDS011;7043;51.630;7.254;2023-03-14T03:13:44;6.07;;;1.57;;
13941;SDS011;7043;51.630;7.254;2023-03-14T03:16:10;6.17;;;1.60;;
13941;SDS011;7043;51.630;7.254;2023-03-14T03:18:38;6.53;;;1.80;;
13941;SDS011;7043;51.630;7.254;2023-03-14T03:21:04;4.73;;;1.30;;
13941;SDS011;7043;51.630;7.254;2023-03-14T03:23:32;5.00;;;1.70;;
13941;SDS011;7043;51.630;7.254;2023-03-14T03:25:58;8.00;;;2.07;;
13941;SDS011;7043;51.630;7.254;2023-03-14T03:28:24;4.03;;;1.40;;
13941;SDS011;7043;51.630;7.254;2023-03-14T03:30:50;8.97;;;1.90;;
13941;SDS011;7043;51.630;7.254;2023-03-14T03:33:16;6.13;;;1.73;;
13941;SDS011;7043;51.630;7.254;2023-03-14T03:35:46;6.53;;;1.30;;
13941;SDS011;7043;51.630;7.254;2023-03-14T03:38:12;6.23;;;1.60;;
13941;SDS011;7043;51.630;7.254;2023-03-14T03:40:38;6.23;;;1.80;;
13941;SDS011;7043;51.630;7.254;2023-03-14T03:43:05;5.90;;;1.57;;
13941;SDS011;7043;51.630;7.254;2023-03-14T03:45:31;4.17;;;1.10;;
13941;SDS011;7043;51.630;7.254;2023-03-14T03:47:57;7.07;;;2.27;;
13941;SDS011;7043;51.630;7.254;2023-03-14T03:50:23;4.10;;;1.57;;
13941;SDS011;7043;51.630;7.254;2023-03-14T03:52:49;6.20;;;1.60;;
13941;SDS011;7043;51.630;7.254;2023-03-14T03:55:15;6.53;;;1.60;;
13941;SDS011;7043;51.630;7.254;2023-03-14T03:57:41;4.97;;;1.90;;
13941;SDS011;7043;51.630;7.254;2023-03-14T04:00:07;5.63;;;1.40;;
13941;SDS011;7043;51.630;7.254;2023-03-14T04:02:36;6.33;;;1.63;;
13941;SDS011;7043;51.630;7.254;2023-03-14T04:05:02;5.53;;;1.47;;
13941;SDS011;7043;51.630;7.254;2023-03-14T04:07:30;6.43;;;1.67;;
13941;SDS011;7043;51.630;7.254;2023-03-14T04:09:56;5.70;;;1.30;;
13941;SDS011;7043;51.630;7.254;2023-03-14T04:12:22;5.77;;;1.33;;
13941;SDS011;7043;51.630;7.254;2023-03-14T04:14:48;5.03;;;1.30;;
13941;SDS011;7043;51.630;7.254;2023-03-14T04:17:14;5.97;;;1.43;;
13941;SDS011;7043;51.630;7.254;2023-03-14T04:19:40;8.60;;;1.77;;
13941;SDS011;7043;51.630;7.254;2023-03-14T04:22:07;5.30;;;1.37;;
13941;SDS011;7043;51.630;7.254;2023-03-14T04:24:33;6.80;;;1.80;;
13941;SDS011;7043;51.630;7.254;2023-03-14T04:26:59;5.03;;;2.00;;
13941;SDS011;7043;51.630;7.254;2023-03-14T04:29:25;6.33;;;2.17;;
13941;SDS011;7043;51.630;7.254;2023-03-14T04:31:51;6.23;;;1.50;;
13941;SDS011;7043;51.630;7.254;2023-03-14T04:34:17;3.83;;;1.53;;
13941;SDS011;7043;51.630;7.254;2023-03-14T04:36:43;9.20;;;2.33;;
13941;SDS011;7043;51.630;7.254;2023-03-14T04:39:09;3.97;;;1.47;;
13941;SDS011;7043;51.630;7.254;2023-03-14T04:41:35;5.97;;;1.40;;
13941;SDS011;7043;51.630;7.254;2023-03-14T04:44:01;3.77;;;1.70;;
13941;SDS011;7043;51.630;7.254;2023-03-14T04:46:27;6.50;;;1.70;;
13941;SDS011;7043;51.630;7.254;2023-03-14T04:48:53;3.23;;;1.00;;
13941;SDS011;7043;51.630;7.254;2023-03-14T04:51:21;4.87;;;1.47;;
13941;SDS011;7043;51.630;7.254;2023-03-14T04:53:48;4.97;;;1.37;;
13941;SDS011;7043;51.630;7.254;2023-03-14T04:56:14;5.40;;;1.00;;
13941;SDS011;7043;51.630;7.254;2023-03-14T04:58:40;2.73;;;0.97;;
13941;SDS011;7043;51.630;7.254;2023-03-14T05:01:06;4.60;;;1.10;;
13941;SDS011;7043;51.630;7.254;2023-03-14T05:03:32;2.57;;;0.93;;
13941;SDS011;7043;51.630;7.254;2023-03-14T05:06:00;3.13;;;0.70;;
13941;SDS011;7043;51.630;7.254;2023-03-14T05:08:27;2.90;;;0.83;;
13941;SDS011;7043;51.630;7.254;2023-03-14T05:10:53;2.37;;;0.40;;
13941;SDS011;7043;51.630;7.254;2023-03-14T05:13:19;0.80;;;0.60;;
13941;SDS011;7043;51.630;7.254;2023-03-14T05:15:45;2.53;;;0.80;;
13941;SDS011;7043;51.630;7.254;2023-03-14T05:18:11;4.03;;;0.80;;
13941;SDS011;7043;51.630;7.254;2023-03-14T05:20:37;2.53;;;0.70;;
13941;SDS011;7043;51.630;7.254;2023-03-14T05:23:03;2.87;;;0.43;;
13941;SDS011;7043;51.630;7.254;2023-03-14T05:25:29;1.90;;;0.70;;
13941;SDS011;7043;51.630;7.254;2023-03-14T05:27:55;2.90;;;0.63;;
13941;SDS011;7043;51.630;7.254;2023-03-14T05:30:21;1.63;;;0.70;;
13941;SDS011;7043;51.630;7.254;2023-03-14T05:32:48;2.37;;;0.90;;
13941;SDS011;7043;51.630;7.254;2023-03-14T05:35:14;2.40;;;0.70;;
13941;SDS011;7043;51.630;7.254;2023-03-14T05:37:40;2.97;;;0.50;;
13941;SDS011;7043;51.630;7.254;2023-03-14T05:40:06;2.53;;;0.70;;
13941;SDS011;7043;51.630;7.254;2023-03-14T05:42:33;2.83;;;0.70;;
13941;SDS011;7043;51.630;7.254;2023-03-14T05:44:59;2.87;;;0.80;;
13941;SDS011;7043;51.630;7.254;2023-03-14T05:47:25;0.93;;;0.60;;
13941;SDS011;7043;51.630;7.254;2023-03-14T05:49:51;1.63;;;0.80;;
13941;SDS011;7043;51.630;7.254;2023-03-14T05:52:17;2.00;;;1.00;;
13941;SDS011;7043;51.630;7.254;2023-03-14T05:54:43;3.53;;;0.90;;
13941;SDS011;7043;51.630;7.254;2023-03-14T05:57:09;2.27;;;0.83;;
13941;SDS011;7043;51.630;7.254;2023-03-14T05:59:36;2.93;;;0.90;;
13941;SDS011;7043;51.630;7.254;2023-03-14T06:02:02;1.93;;;1.03;;
13941;SDS011;7043;51.630;7.254;2023-03-14T06:04:28;1.53;;;0.80;;
13941;SDS011;7043;51.630;7.254;2023-03-14T06:06:55;4.03;;;1.40;;
13941;SDS011;7043;51.630;7.254;2023-03-14T06:09:21;1.53;;;1.10;;
13941;SDS011;7043;51.630;7.254;2023-03-14T06:11:48;2.27;;;1.30;;
13941;SDS011;7043;51.630;7.254;2023-03-14T06:14:14;2.47;;;1.37;;
13941;SDS011;7043;51.630;7.254;2023-03-14T06:16:40;2.37;;;1.50;;
13941;SDS011;7043;51.630;7.254;2023-03-14T06:19:06;3.43;;;2.20;;
13941;SDS011;7043;51.630;7.254;2023-03-14T06:21:32;3.50;;;2.77;;
13941;SDS011;7043;51.630;7.254;2023-03-14T06:23:58;4.17;;;3.77;;
13941;SDS011;7043;51.630;7.254;2023-03-14T06:26:24;4.57;;;3.70;;
13941;SDS011;7043;51.630;7.254;2023-03-14T06:28:50;4.50;;;4.10;;
13941;SDS011;7043;51.630;7.254;2023-03-14T06:31:16;5.87;;;4.33;;
13941;SDS011;7043;51.630;7.254;2023-03-14T06:33:42;5.87;;;4.57;;
13941;SDS011;7043;51.630;7.254;2023-03-14T06:36:08;6.63;;;4.73;;
13941;SDS011;7043;51.630;7.254;2023-03-14T06:38:35;5.93;;;4.60;;
13941;SDS011;7043;51.630;7.254;2023-03-14T06:41:05;5.53;;;4.70;;
13941;SDS011;7043;51.630;7.254;2023-03-14T06:43:31;5.77;;;5.10;;
13941;SDS011;7043;51.630;7.254;2023-03-14T06:45:58;5.90;;;4.97;;
13941;SDS011;7043;51.630;7.254;2023-03-14T06:48:24;7.80;;;5.07;;
13941;SDS011;7043;51.630;7.254;2023-03-14T06:50:50;8.10;;;5.00;;
13941;SDS011;7043;51.630;7.254;2023-03-14T06:53:16;6.80;;;4.50;;
13941;SDS011;7043;51.630;7.254;2023-03-14T06:55:43;5.20;;;3.90;;
13941;SDS011;7043;51.630;7.254;2023-03-14T06:58:10;7.87;;;4.10;;
13941;SDS011;7043;51.630;7.254;2023-03-14T07:00:36;4.47;;;3.77;;
13941;SDS011;7043;51.630;7.254;2023-03-14T07:03:02;5.10;;;3.27;;
13941;SDS011;7043;51.630;7.254;2023-03-14T07:05:28;6.37;;;3.37;;
13941;SDS011;7043;51.630;7.254;2023-03-14T07:07:55;6.57;;;3.47;;
13941;SDS011;7043;51.630;7.254;2023-03-14T07:10:21;4.63;;;3.30;;
13941;SDS011;7043;51.630;7.254;2023-03-14T07:12:47;5.50;;;3.43;;
13941;SDS011;7043;51.630;7.254;2023-03-14T07:15:14;3.20;;;2.50;;
13941;SDS011;7043;51.630;7.254;2023-03-14T07:17:40;4.60;;;3.30;;
13941;SDS011;7043;51.630;7.254;2023-03-14T07:20:06;5.03;;;3.00;;
13941;SDS011;7043;51.630;7.254;2023-03-14T07:22:34;5.33;;;3.00;;
13941;SDS011;7043;51.630;7.254;2023-03-14T07:25:00;2.77;;;2.47;;
13941;SDS011;7043;51.630;7.254;2023-03-14T07:27:26;3.17;;;2.60;;
13941;SDS011;7043;51.630;7.254;2023-03-14T07:29:52;2.87;;;1.97;;
13941;SDS011;7043;51.630;7.254;2023-03-14T07:32:18;4.00;;;1.90;;
13941;SDS011;7043;51.630;7.254;2023-03-14T07:34:44;2.73;;;1.70;;
13941;SDS011;7043;51.630;7.254;2023-03-14T07:37:10;3.97;;;1.63;;
13941;SDS011;7043;51.630;7.254;2023-03-14T07:39:36;2.13;;;1.60;;
13941;SDS011;7043;51.630;7.254;2023-03-14T07:42:02;1.13;;;0.90;;
13941;SDS011;7043;51.630;7.254;2023-03-14T07:44:28;3.00;;;1.30;;
13941;SDS011;7043;51.630;7.254;2023-03-14T07:46:54;3.27;;;1.50;;
13941;SDS011;7043;51.630;7.254;2023-03-14T07:49:20;4.20;;;2.13;;
13941;SDS011;7043;51.630;7.254;2023-03-14T07:51:49;2.87;;;2.00;;
13941;SDS011;7043;51.630;7.254;2023-03-14T07:54:16;2.90;;;1.80;;
13941;SDS011;7043;51.630;7.254;2023-03-14T07:56:42;3.17;;;2.20;;
13941;SDS011;7043;51.630;7.254;2023-03-14T07:59:08;3.13;;;2.33;;
13941;SDS011;7043;51.630;7.254;2023-03-14T08:01:34;3.57;;;2.33;;
13941;SDS011;7043;51.630;7.254;2023-03-14T08:04:00;3.20;;;2.17;;
13941;SDS011;7043;51.630;7.254;2023-03-14T08:06:26;2.93;;;2.00;;
13941;SDS011;7043;51.630;7.254;2023-03-14T08:08:52;2.93;;;2.17;;
13941;SDS011;7043;51.630;7.254;2023-03-14T08:11:18;3.00;;;2.43;;
13941;SDS011;7043;51.630;7.254;2023-03-14T08:13:44;2.53;;;2.33;;
13941;SDS011;7043;51.630;7.254;2023-03-14T08:16:18;5.47;;;2.37;;
13941;SDS011;7043;51.630;7.254;2023-03-14T08:18:44;2.93;;;2.40;;
13941;SDS011;7043;51.630;7.254;2023-03-14T08:21:10;2.83;;;2.43;;
13941;SDS011;7043;51.630;7.254;2023-03-14T08:23:36;2.83;;;2.43;;
13941;SDS011;7043;51.630;7.254;2023-03-14T08:26:02;3.20;;;2.90;;
13941;SDS011;7043;51.630;7.254;2023-03-14T08:28:28;3.37;;;3.07;;
13941;SDS011;7043;51.630;7.254;2023-03-14T08:30:57;3.83;;;2.97;;
13941;SDS011;7043;51.630;7.254;2023-03-14T08:33:23;3.50;;;3.00;;
13941;SDS011;7043;51.630;7.254;2023-03-14T08:35:53;4.20;;;3.80;;
13941;SDS011;7043;51.630;7.254;2023-03-14T08:38:20;3.70;;;3.40;;
13941;SDS011;7043;51.630;7.254;2023-03-14T08:40:46;4.60;;;4.00;;
13941;SDS011;7043;51.630;7.254;2023-03-14T08:43:12;4.50;;;4.10;;
13941;SDS011;7043;51.630;7.254;2023-03-14T08:45:38;4.57;;;4.17;;
13941;SDS011;7043;51.630;7.254;2023-03-14T08:48:04;5.83;;;4.73;;
13941;SDS011;7043;51.630;7.254;2023-03-14T08:50:30;5.70;;;5.20;;
13941;SDS011;7043;51.630;7.254;2023-03-14T08:52:56;5.30;;;4.80;;
13941;SDS011;7043;51.630;7.254;2023-03-14T08:55:26;5.90;;;5.30;;
13941;SDS011;7043;51.630;7.254;2023-03-14T08:57:52;5.43;;;4.97;;
13941;SDS011;7043;51.630;7.254;2023-03-14T09:00:19;5.70;;;5.20;;
13941;SDS011;7043;51.630;7.254;2023-03-14T09:02:45;4.80;;;4.40;;
13941;SDS011;7043;51.630;7.254;2023-03-14T09:05:11;6.73;;;6.13;;
13941;SDS011;7043;51.630;7.254;2023-03-14T09:07:38;6.13;;;5.63;;
13941;SDS011;7043;51.630;7.254;2023-03-14T09:10:04;5.20;;;4.70;;
13941;SDS011;7043;51.630;7.254;2023-03-14T09:12:30;4.80;;;4.40;;
13941;SDS011;7043;51.630;7.254;2023-03-14T09:14:56;3.93;;;3.63;;
13941;SDS011;7043;51.630;7.254;2023-03-14T09:17:22;4.53;;;3.67;;
13941;SDS011;7043;51.630;7.254;2023-03-14T09:19:48;4.97;;;4.57;;
13941;SDS011;7043;51.630;7.254;2023-03-14T09:22:14;5.17;;;4.77;;
13941;SDS011;7043;51.630;7.254;2023-03-14T09:24:41;5.47;;;5.07;;
13941;SDS011;7043;51.630;7.254;2023-03-14T09:27:07;5.83;;;5.33;;
13941;SDS011;7043;51.630;7.254;2023-03-14T09:29:33;5.63;;;5.23;;
13941;SDS011;7043;51.630;7.254;2023-03-14T09:31:59;5.60;;;4.37;;
13941;SDS011;7043;51.630;7.254;2023-03-14T09:34:26;2.00;;;1.40;;
13941;SDS011;7043;51.630;7.254;2023-03-14T09:36:52;0.47;;;0.40;;
13941;SDS011;7043;51.630;7.254;2023-03-14T09:39:18;1.83;;;0.60;;
13941;SDS011;7043;51.630;7.254;2023-03-14T09:41:46;0.43;;;0.30;;
13941;SDS011;7043;51.630;7.254;2023-03-14T09:44:14;0.70;;;0.50;;
13941;SDS011;7043;51.630;7.254;2023-03-14T09:46:42;1.33;;;0.60;;
13941;SDS011;7043;51.630;7.254;2023-03-14T09:49:15;1.17;;;0.70;;
13941;SDS011;7043;51.630;7.254;2023-03-14T09:51:44;0.83;;;0.53;;
13941;SDS011;7043;51.630;7.254;2023-03-14T09:56:58;1.00;;;0.70;;
13941;SDS011;7043;51.630;7.254;2023-03-14T09:59:24;1.53;;;0.60;;
13941;SDS011;7043;51.630;7.254;2023-03-14T10:01:51;1.97;;;1.13;;
13941;SDS011;7043;51.630;7.254;2023-03-14T10:04:20;1.13;;;0.83;;
13941;SDS011;7043;51.630;7.254;2023-03-14T10:06:47;1.10;;;1.00;;
13941;SDS011;7043;51.630;7.254;2023-03-14T10:09:17;2.97;;;1.00;;
13941;SDS011;7043;51.630;7.254;2023-03-14T10:11:44;2.40;;;0.60;;
13941;SDS011;7043;51.630;7.254;2023-03-14T10:14:11;0.67;;;0.33;;
13941;SDS011;7043;51.630;7.254;2023-03-14T10:16:42;0.97;;;0.30;;
13941;SDS011;7043;51.630;7.254;2023-03-14T10:19:16;0.53;;;0.43;;
13941;SDS011;7043;51.630;7.254;2023-03-14T10:21:43;0.77;;;0.40;;
13941;SDS011;7043;51.630;7.254;2023-03-14T10:24:31;1.57;;;0.60;;
13941;SDS011;7043;51.630;7.254;2023-03-14T10:27:08;0.77;;;0.70;;
13941;SDS011;7043;51.630;7.254;2023-03-14T10:29:53;2.13;;;1.10;;
13941;SDS011;7043;51.630;7.254;2023-03-14T10:32:20;1.20;;;0.73;;
13941;SDS011;7043;51.630;7.254;2023-03-14T10:35:03;3.27;;;1.50;;
13941;SDS011;7043;51.630;7.254;2023-03-14T10:37:29;2.60;;;1.57;;
13941;SDS011;7043;51.630;7.254;2023-03-14T10:39:58;2.33;;;1.10;;
13941;SDS011;7043;51.630;7.254;2023-03-14T10:42:30;2.07;;;0.97;;
13941;SDS011;7043;51.630;7.254;2023-03-14T10:44:59;2.07;;;1.00;;
13941;SDS011;7043;51.630;7.254;2023-03-14T10:47:26;1.70;;;1.10;;
13941;SDS011;7043;51.630;7.254;2023-03-14T10:49:56;3.23;;;1.00;;
13941;SDS011;7043;51.630;7.254;2023-03-14T10:52:27;1.20;;;0.90;;
13941;SDS011;7043;51.630;7.254;2023-03-14T10:54:56;1.10;;;0.60;;
13941;SDS011;7043;51.630;7.254;2023-03-14T10:57:22;1.20;;;1.00;;
13941;SDS011;7043;51.630;7.254;2023-03-14T10:59:48;1.93;;;1.00;;
13941;SDS011;7043;51.630;7.254;2023-03-14T11:04:52;1.47;;;0.73;;
13941;SDS011;7043;51.630;7.254;2023-03-14T11:07:27;0.97;;;0.70;;
13941;SDS011;7043;51.630;7.254;2023-03-14T11:10:40;1.10;;;1.00;;
13941;SDS011;7043;51.630;7.254;2023-03-14T11:12:44;1.70;;;0.90;;
13941;SDS011;7043;51.630;7.254;2023-03-14T11:15:16;3.03;;;1.33;;
13941;SDS011;7043;51.630;7.254;2023-03-14T11:17:49;1.53;;;0.70;;
13941;SDS011;7043;51.630;7.254;2023-03-14T11:23:05;1.70;;;0.83;;
13941;SDS011;7043;51.630;7.254;2023-03-14T11:33:07;0.90;;;0.73;;
13941;SDS011;7043;51.630;7.254;2023-03-14T11:35:35;0.67;;;0.60;;
13941;SDS011;7043;51.630;7.254;2023-03-14T11:40:47;1.83;;;1.00;;
13941;SDS011;7043;51.630;7.254;2023-03-14T11:43:20;2.30;;;1.17;;
13941;SDS011;7043;51.630;7.254;2023-03-14T11:45:46;2.40;;;2.00;;
13941;SDS011;7043;51.630;7.254;2023-03-14T11:50:40;1.87;;;1.60;;
13941;SDS011;7043;51.630;7.254;2023-03-14T11:53:09;1.60;;;1.20;;
13941;SDS011;7043;51.630;7.254;2023-03-14T11:55:40;2.63;;;1.10;;
13941;SDS011;7043;51.630;7.254;2023-03-14T11:58:20;3.70;;;3.40;;
13941;SDS011;7043;51.630;7.254;2023-03-14T12:00:49;1.73;;;0.87;;
13941;SDS011;7043;51.630;7.254;2023-03-14T12:03:24;2.40;;;1.30;;
13941;SDS011;7043;51.630;7.254;2023-03-14T12:13:48;2.97;;;1.40;;
13941;SDS011;7043;51.630;7.254;2023-03-14T12:18:50;4.57;;;1.17;;
13941;SDS011;7043;51.630;7.254;2023-03-14T12:21:16;1.80;;;0.80;;
13941;SDS011;7043;51.630;7.254;2023-03-14T12:23:52;4.50;;;1.90;;
13941;SDS011;7043;51.630;7.254;2023-03-14T12:26:20;3.90;;;2.73;;
13941;SDS011;7043;51.630;7.254;2023-03-14T12:34:55;5.97;;;1.90;;
13941;SDS011;7043;51.630;7.254;2023-03-14T12:37:00;6.30;;;1.63;;
13941;SDS011;7043;51.630;7.254;2023-03-14T12:42:04;6.33;;;1.77;;
13941;SDS011;7043;51.630;7.254;2023-03-14T12:49:47;6.03;;;1.57;;
13941;SDS011;7043;51.630;7.254;2023-03-14T12:52:14;4.37;;;1.33;;
13941;SDS011;7043;51.630;7.254;2023-03-14T12:59:52;10.43;;;2.83;;
13941;SDS011;7043;51.630;7.254;2023-03-14T13:02:28;8.33;;;2.57;;
13941;SDS011;7043;51.630;7.254;2023-03-14T13:05:02;4.87;;;1.80;;
13941;SDS011;7043;51.630;7.254;2023-03-14T13:15:44;10.67;;;2.03;;
13941;SDS011;7043;51.630;7.254;2023-03-14T13:18:12;12.93;;;2.33;;
13941;SDS011;7043;51.630;7.254;2023-03-14T13:20:46;11.03;;;2.03;;
13941;SDS011;7043;51.630;7.254;2023-03-14T13:23:21;12.03;;;2.43;;
13941;SDS011;7043;51.630;7.254;2023-03-14T13:25:47;8.57;;;2.17;;
13941;SDS011;7043;51.630;7.254;2023-03-14T13:28:13;9.53;;;2.37;;
13941;SDS011;7043;51.630;7.254;2023-03-14T13:30:42;15.17;;;2.23;;
13941;SDS011;7043;51.630;7.254;2023-03-14T13:33:13;10.43;;;2.47;;
13941;SDS011;7043;51.630;7.254;2023-03-14T13:35:41;13.47;;;2.37;;
13941;SDS011;7043;51.630;7.254;2023-03-14T13:38:27;10.10;;;2.73;;
13941;SDS011;7043;51.630;7.254;2023-03-14T13:40:57;14.13;;;2.90;;
13941;SDS011;7043;51.630;7.254;2023-03-14T13:45:56;11.13;;;2.73;;
13941;SDS011;7043;51.630;7.254;2023-03-14T13:48:26;11.77;;;2.63;;
13941;SDS011;7043;51.630;7.254;2023-03-14T13:50:56;11.77;;;2.97;;
13941;SDS011;7043;51.630;7.254;2023-03-14T13:53:24;11.50;;;2.90;;
13941;SDS011;7043;51.630;7.254;2023-03-14T13:55:50;12.37;;;2.43;;
13941;SDS011;7043;51.630;7.254;2023-03-14T13:58:20;10.63;;;2.87;;
13941;SDS011;7043;51.630;7.254;2023-03-14T14:01:01;8.80;;;2.00;;
13941;SDS011;7043;51.630;7.254;2023-03-14T14:03:29;10.70;;;2.90;;
13941;SDS011;7043;51.630;7.254;2023-03-14T14:05:56;11.03;;;2.77;;
13941;SDS011;7043;51.630;7.254;2023-03-14T14:08:23;10.73;;;3.63;;
13941;SDS011;7043;51.630;7.254;2023-03-14T14:10:49;9.97;;;2.57;;
13941;SDS011;7043;51.630;7.254;2023-03-14T14:13:17;9.17;;;2.53;;
13941;SDS011;7043;51.630;7.254;2023-03-14T14:15:47;7.90;;;1.80;;
13941;SDS011;7043;51.630;7.254;2023-03-14T14:18:16;10.03;;;2.27;;
13941;SDS011;7043;51.630;7.254;2023-03-14T14:20:44;11.00;;;2.10;;
13941;SDS011;7043;51.630;7.254;2023-03-14T14:23:11;9.90;;;2.30;;
13941;SDS011;7043;51.630;7.254;2023-03-14T14:25:38;8.13;;;1.50;;
13941;SDS011;7043;51.630;7.254;2023-03-14T14:31:04;7.50;;;1.83;;
13941;SDS011;7043;51.630;7.254;2023-03-14T14:33:37;9.30;;;1.87;;
13941;SDS011;7043;51.630;7.254;2023-03-14T14:36:04;8.30;;;1.80;;
13941;SDS011;7043;51.630;7.254;2023-03-14T14:38:30;9.27;;;1.83;;
13941;SDS011;7043;51.630;7.254;2023-03-14T14:40:59;6.50;;;1.60;;
13941;SDS011;7043;51.630;7.254;2023-03-14T14:43:27;9.33;;;1.80;;
13941;SDS011;7043;51.630;7.254;2023-03-14T14:45:54;7.10;;;1.57;;
13941;SDS011;7043;51.630;7.254;2023-03-14T14:48:23;6.03;;;1.40;;
13941;SDS011;7043;51.630;7.254;2023-03-14T14:50:50;8.83;;;2.00;;
13941;SDS011;7043;51.630;7.254;2023-03-14T14:55:57;6.47;;;1.37;;
13941;SDS011;7043;51.630;7.254;2023-03-14T14:58:28;4.33;;;1.20;;
13941;SDS011;7043;51.630;7.254;2023-03-14T15:03:20;6.00;;;1.23;;
13941;SDS011;7043;51.630;7.254;2023-03-14T15:05:46;5.00;;;2.00;;
13941;SDS011;7043;51.630;7.254;2023-03-14T15:08:13;8.87;;;1.70;;
13941;SDS011;7043;51.630;7.254;2023-03-14T15:10:39;6.60;;;1.73;;
13941;SDS011;7043;51.630;7.254;2023-03-14T15:13:05;5.00;;;1.50;;
13941;SDS011;7043;51.630;7.254;2023-03-14T15:15:31;4.23;;;1.10;;
13941;SDS011;7043;51.630;7.254;2023-03-14T15:17:57;3.13;;;0.80;;
13941;SDS011;7043;51.630;7.254;2023-03-14T15:20:23;3.97;;;1.00;;
13941;SDS011;7043;51.630;7.254;2023-03-14T15:22:49;7.80;;;1.90;;
13941;SDS011;7043;51.630;7.254;2023-03-14T15:25:15;7.37;;;1.70;;
13941;SDS011;7043;51.630;7.254;2023-03-14T15:27:41;3.70;;;1.10;;
13941;SDS011;7043;51.630;7.254;2023-03-14T15:30:17;4.67;;;1.27;;
13941;SDS011;7043;51.630;7.254;2023-03-14T15:32:43;5.87;;;1.23;;
13941;SDS011;7043;51.630;7.254;2023-03-14T15:35:09;3.63;;;0.87;;
13941;SDS011;7043;51.630;7.254;2023-03-14T15:37:35;1.90;;;0.87;;
13941;SDS011;7043;51.630;7.254;2023-03-14T15:40:02;5.47;;;1.60;;
13941;SDS011;7043;51.630;7.254;2023-03-14T15:42:36;3.37;;;1.10;;
13941;SDS011;7043;51.630;7.254;2023-03-14T15:45:02;5.63;;;1.50;;
13941;SDS011;7043;51.630;7.254;2023-03-14T15:47:29;5.63;;;2.00;;
13941;SDS011;7043;51.630;7.254;2023-03-14T15:49:57;5.00;;;1.30;;
13941;SDS011;7043;51.630;7.254;2023-03-14T15:52:23;7.93;;;1.90;;
13941;SDS011;7043;51.630;7.254;2023-03-14T15:54:49;4.30;;;1.17;;
13941;SDS011;7043;51.630;7.254;2023-03-14T15:57:15;3.53;;;1.03;;
13941;SDS011;7043;51.630;7.254;2023-03-14T15:59:41;4.60;;;1.37;;
13941;SDS011;7043;51.630;7.254;2023-03-14T16:02:08;6.80;;;1.80;;
13941;SDS011;7043;51.630;7.254;2023-03-14T16:04:35;6.27;;;1.33;;
13941;SDS011;7043;51.630;7.254;2023-03-14T16:07:01;2.97;;;1.40;;
13941;SDS011;7043;51.630;7.254;2023-03-14T16:09:27;5.43;;;1.70;;
13941;SDS011;7043;51.630;7.254;2023-03-14T16:11:53;3.70;;;1.20;;
13941;SDS011;7043;51.630;7.254;2023-03-14T16:14:19;4.43;;;1.37;;
13941;SDS011;7043;51.630;7.254;2023-03-14T16:16:46;5.20;;;1.50;;
13941;SDS011;7043;51.630;7.254;2023-03-14T16:19:12;3.03;;;1.30;;